Time;durP1;ratioP1;P1;durP2;ratioP2;P2;SDS_P1;SDS_P2;PMS_P1;PMS_P2;Temp;Humidity;BMP_temperature;BMP_pressure;BME280_temperature;BME280_humidity;BME280_pressure;Samples;Min_cycle;Max_cycle;Signal;HPM_P1;HPM_P2
2024/02/13 00:00:13;;;;;;;8.52;5.07;;;;;;;;;;5055896;28;20061;-60
2024/02/13 00:02:41;;;;;;;10.13;5.35;;;;;;;;;;5055866;28;20483;-60
2024/02/13 00:05:08;;;;;;;8.48;4.75;;;;;;;;;;5055433;28;20049;-61
2024/02/13 00:07:36;;;;;;;9.32;4.75;;;;;;;;;;5055866;28;20049;-60
2024/02/13 00:10:05;;;;;;;9.48;4.35;;;;;;;;;;5055728;28;20071;-61
2024/02/13 00:12:31;;;;;;;9.88;5.47;;;;;;;;;;5056502;28;20476;-61
2024/02/13 00:14:58;;;;;;;9.02;5.20;;;;;;;;;;5055325;28;20519;-61
2024/02/13 00:17:25;;;;;;;9.75;5.35;;;;;;;;;;5055539;28;20049;-60
2024/02/13 00:19:53;;;;;;;8.93;5.28;;;;;;;;;;5054198;28;20053;-60
2024/02/13 00:22:20;;;;;;;9.88;5.68;;;;;;;;;;5055394;28;20057;-60
2024/02/13 00:24:50;;;;;;;11.82;5.78;;;;;;;;;;5055314;28;20111;-60
2024/02/13 00:27:18;;;;;;;10.90;5.80;;;;;;;;;;5055313;28;20053;-60
2024/02/13 00:29:45;;;;;;;10.65;5.88;;;;;;;;;;5055365;28;20506;-60
2024/02/13 00:32:12;;;;;;;12.60;6.05;;;;;;;;;;5055136;28;20136;-63
2024/02/13 00:34:40;;;;;;;12.52;6.15;;;;;;;;;;5055164;28;20053;-62
2024/02/13 00:37:08;;;;;;;9.85;5.55;;;;;;;;;;5054923;28;20049;-62
2024/02/13 00:39:35;;;;;;;11.63;5.97;;;;;;;;;;5054957;28;20055;-60
2024/02/13 00:42:02;;;;;;;11.07;6.38;;;;;;;;;;5056013;28;20057;-60
2024/02/13 00:44:30;;;;;;;15.70;7.60;;;;;;;;;;5054315;28;20415;-60
2024/02/13 00:46:58;;;;;;;11.60;6.85;;;;;;;;;;5055118;28;20071;-60
2024/02/13 00:49:24;;;;;;;12.15;7.40;;;;;;;;;;5055214;28;20053;-60
2024/02/13 00:51:51;;;;;;;12.63;8.07;;;;;;;;;;5054953;28;20112;-60
2024/02/13 00:54:18;;;;;;;16.13;8.50;;;;;;;;;;5065878;28;20049;-61
2024/02/13 00:56:45;;;;;;;12.65;7.93;;;;;;;;;;5069162;28;20426;-61
2024/02/13 00:59:12;;;;;;;12.25;8.48;;;;;;;;;;5054575;28;20060;-61
2024/02/13 01:01:41;;;;;;;12.43;8.00;;;;;;;;;;5054810;28;20494;-61
2024/02/13 01:04:07;;;;;;;13.82;8.98;;;;;;;;;;5054576;28;20049;-61
2024/02/13 01:06:35;;;;;;;15.98;9.13;;;;;;;;;;5054813;28;20060;-61
2024/02/13 01:09:05;;;;;;;13.50;9.27;;;;;;;;;;5054243;28;20052;-61
2024/02/13 01:11:32;;;;;;;13.10;8.85;;;;;;;;;;5054070;28;20060;-61
2024/02/13 01:13:59;;;;;;;13.93;8.10;;;;;;;;;;5068633;28;20048;-61
2024/02/13 01:16:26;;;;;;;13.63;8.13;;;;;;;;;;5074265;28;20056;-61
2024/02/13 01:18:55;;;;;;;11.85;7.45;;;;;;;;;;5074235;28;20055;-61
2024/02/13 01:21:22;;;;;;;14.88;7.53;;;;;;;;;;5074214;28;20079;-61
2024/02/13 01:23:49;;;;;;;10.35;6.70;;;;;;;;;;5074058;28;20071;-61
2024/02/13 01:26:18;;;;;;;12.07;6.90;;;;;;;;;;5074021;28;20052;-61
2024/02/13 01:28:45;;;;;;;12.70;6.55;;;;;;;;;;5068481;28;20055;-60
2024/02/13 01:31:13;;;;;;;10.32;6.70;;;;;;;;;;5073019;28;20407;-60
2024/02/13 01:33:39;;;;;;;10.23;6.10;;;;;;;;;;5073347;28;20052;-61
2024/02/13 01:36:09;;;;;;;14.98;7.80;;;;;;;;;;5073841;28;20060;-61
2024/02/13 01:38:36;;;;;;;14.57;7.20;;;;;;;;;;5073479;28;20059;-60
2024/02/13 01:41:03;;;;;;;13.05;6.88;;;;;;;;;;5073910;28;20471;-60
2024/02/13 01:43:31;;;;;;;12.77;7.20;;;;;;;;;;5072951;28;20044;-60
2024/02/13 01:45:59;;;;;;;13.50;6.80;;;;;;;;;;5073315;28;20052;-60
2024/02/13 01:48:26;;;;;;;12.20;6.03;;;;;;;;;;5061627;28;20052;-60
2024/02/13 01:50:55;;;;;;;10.32;6.15;;;;;;;;;;5053801;28;20484;-61
2024/02/13 01:53:26;;;;;;;17.73;7.25;;;;;;;;;;5057012;28;20041;-60
2024/02/13 01:55:54;;;;;;;14.35;5.88;;;;;;;;;;5073489;28;20056;-60
2024/02/13 01:58:22;;;;;;;13.57;6.20;;;;;;;;;;5061662;28;20053;-61
2024/02/13 02:00:51;;;;;;;11.52;6.78;;;;;;;;;;5053367;28;20057;-60
2024/02/13 02:03:19;;;;;;;13.10;6.65;;;;;;;;;;5053211;28;20598;-60
2024/02/13 02:05:45;;;;;;;11.25;6.95;;;;;;;;;;5052969;28;20053;-60
2024/02/13 02:08:13;;;;;;;10.45;6.53;;;;;;;;;;5053292;28;20503;-61
2024/02/13 02:10:44;;;;;;;15.98;6.97;;;;;;;;;;5053049;28;20064;-60
2024/02/13 02:13:12;;;;;;;12.32;6.97;;;;;;;;;;5055875;28;20056;-61
2024/02/13 02:15:41;;;;;;;13.05;6.80;;;;;;;;;;5073202;28;20048;-60
2024/02/13 02:18:09;;;;;;;9.27;7.00;;;;;;;;;;5072875;28;20064;-60
2024/02/13 02:20:36;;;;;;;14.25;7.93;;;;;;;;;;5073338;28;20418;-60
2024/02/13 02:23:03;;;;;;;13.85;7.63;;;;;;;;;;5072856;28;20063;-60
2024/02/13 02:25:31;;;;;;;14.93;8.40;;;;;;;;;;5072774;28;20053;-60
2024/02/13 02:27:58;;;;;;;17.67;9.55;;;;;;;;;;5069444;28;20482;-60
2024/02/13 02:30:25;;;;;;;17.70;9.35;;;;;;;;;;5064170;28;20487;-61
2024/02/13 02:32:52;;;;;;;16.10;9.93;;;;;;;;;;5073183;28;20410;-60
2024/02/13 02:35:18;;;;;;;18.05;10.88;;;;;;;;;;5072946;28;20045;-60
2024/02/13 02:37:48;;;;;;;15.25;10.90;;;;;;;;;;5073147;28;20052;-60
2024/02/13 02:40:16;;;;;;;18.23;11.02;;;;;;;;;;5073017;28;20052;-60
2024/02/13 02:42:45;;;;;;;17.42;11.48;;;;;;;;;;5072423;28;20060;-61
2024/02/13 02:45:12;;;;;;;18.52;11.68;;;;;;;;;;5056082;28;20053;-60
2024/02/13 02:47:39;;;;;;;17.40;11.65;;;;;;;;;;5052972;28;20057;-61
2024/02/13 02:50:06;;;;;;;16.23;11.13;;;;;;;;;;5052798;28;20056;-60
2024/02/13 02:52:33;;;;;;;18.35;11.82;;;;;;;;;;5052810;28;20053;-60
2024/02/13 02:55:00;;;;;;;16.08;11.88;;;;;;;;;;5052416;28;20049;-60
2024/02/13 02:57:27;;;;;;;15.63;11.35;;;;;;;;;;5052707;28;20060;-61
2024/02/13 02:59:55;;;;;;;17.98;12.35;;;;;;;;;;5052862;28;20060;-60
2024/02/13 03:02:22;;;;;;;18.75;12.85;;;;;;;;;;5052667;28;20060;-60
2024/02/13 03:04:49;;;;;;;18.13;12.13;;;;;;;;;;5052180;28;20063;-61
2024/02/13 03:07:16;;;;;;;20.60;12.98;;;;;;;;;;5052449;28;20049;-61
2024/02/13 03:09:42;;;;;;;21.02;12.98;;;;;;;;;;5052224;28;20057;-60
2024/02/13 03:12:09;;;;;;;21.92;12.90;;;;;;;;;;5052599;28;20053;-60
2024/02/13 03:14:36;;;;;;;19.50;12.88;;;;;;;;;;5059830;28;20376;-60
2024/02/13 03:17:06;;;;;;;23.10;14.07;;;;;;;;;;5072585;28;20502;-61
2024/02/13 03:19:33;;;;;;;19.85;13.70;;;;;;;;;;5072590;28;20052;-60
2024/02/13 03:22:00;;;;;;;21.58;12.15;;;;;;;;;;5072476;28;20052;-60
2024/02/13 03:24:28;;;;;;;21.90;13.13;;;;;;;;;;5071985;28;20495;-61
2024/02/13 03:26:55;;;;;;;20.02;13.30;;;;;;;;;;5069922;28;20052;-61
2024/02/13 03:29:21;;;;;;;21.63;14.10;;;;;;;;;;5052247;28;20057;-60
2024/02/13 03:31:49;;;;;;;19.80;13.27;;;;;;;;;;5051971;28;20501;-60
2024/02/13 03:34:17;;;;;;;20.40;14.10;;;;;;;;;;5051806;28;20049;-60
2024/02/13 03:36:44;;;;;;;22.08;14.38;;;;;;;;;;5052129;28;20056;-61
2024/02/13 03:39:11;;;;;;;19.38;13.88;;;;;;;;;;5051784;28;20059;-61
2024/02/13 03:41:41;;;;;;;19.02;14.20;;;;;;;;;;5052163;28;20053;-60
2024/02/13 03:44:10;;;;;;;22.98;14.65;;;;;;;;;;5053818;28;20053;-60
2024/02/13 03:46:37;;;;;;;20.83;14.75;;;;;;;;;;5051722;28;20049;-60
2024/02/13 03:49:04;;;;;;;20.20;14.70;;;;;;;;;;5052127;28;20049;-60
2024/02/13 03:51:33;;;;;;;21.17;14.43;;;;;;;;;;5052155;28;20049;-60
2024/02/13 03:54:00;;;;;;;20.02;14.00;;;;;;;;;;5051753;28;20492;-61
2024/02/13 03:56:26;;;;;;;21.73;15.18;;;;;;;;;;5054858;28;20057;-61
2024/02/13 03:58:53;;;;;;;22.05;15.60;;;;;;;;;;5055761;28;20534;-61
2024/02/13 04:01:20;;;;;;;22.23;15.70;;;;;;;;;;5056274;28;20052;-60
2024/02/13 04:03:48;;;;;;;19.52;15.27;;;;;;;;;;5056114;28;20056;-61
2024/02/13 04:06:15;;;;;;;20.77;14.82;;;;;;;;;;5055856;28;20053;-61
2024/02/13 04:08:44;;;;;;;22.73;15.98;;;;;;;;;;5055527;28;20056;-61
2024/02/13 04:11:11;;;;;;;20.90;14.52;;;;;;;;;;5055823;28;20056;-61
2024/02/13 04:13:38;;;;;;;21.17;15.10;;;;;;;;;;5055579;28;20061;-61
2024/02/13 04:16:06;;;;;;;20.50;15.55;;;;;;;;;;5065213;28;20052;-61
2024/02/13 04:18:33;;;;;;;20.98;15.15;;;;;;;;;;5075391;28;20052;-61
2024/02/13 04:20:59;;;;;;;22.25;14.95;;;;;;;;;;5060592;28;20072;-61
2024/02/13 04:23:27;;;;;;;20.73;14.65;;;;;;;;;;5055729;28;20053;-61
2024/02/13 04:25:55;;;;;;;24.48;16.45;;;;;;;;;;5055421;28;20056;-61
2024/02/13 04:28:22;;;;;;;20.42;15.60;;;;;;;;;;5055339;28;20502;-61
2024/02/13 04:30:49;;;;;;;21.73;16.88;;;;;;;;;;5055086;28;20061;-61
2024/02/13 04:33:16;;;;;;;22.23;16.08;;;;;;;;;;5054868;28;20052;-61
2024/02/13 04:35:43;;;;;;;23.85;16.83;;;;;;;;;;5054583;28;20049;-61
2024/02/13 04:38:09;;;;;;;24.13;17.55;;;;;;;;;;5054973;28;20056;-61
2024/02/13 04:40:36;;;;;;;23.63;17.83;;;;;;;;;;5054874;28;20056;-60
2024/02/13 04:43:06;;;;;;;26.90;17.92;;;;;;;;;;5054676;28;20056;-61
2024/02/13 04:45:32;;;;;;;23.10;16.42;;;;;;;;;;5071175;28;20045;-61
2024/02/13 04:47:59;;;;;;;25.45;18.88;;;;;;;;;;5075094;28;20049;-61
2024/02/13 04:50:27;;;;;;;25.60;17.42;;;;;;;;;;5074746;28;20057;-61
2024/02/13 04:52:55;;;;;;;24.27;18.73;;;;;;;;;;5074684;28;20383;-61
2024/02/13 04:55:22;;;;;;;25.98;18.60;;;;;;;;;;5074650;28;20150;-60
2024/02/13 04:57:49;;;;;;;28.27;18.70;;;;;;;;;;5074822;28;20075;-61
2024/02/13 05:00:24;;;;;;;26.30;18.55;;;;;;;;;;5071724;28;20059;-61
2024/02/13 05:03:01;;;;;;;27.60;19.60;;;;;;;;;;5056126;28;20049;-60
2024/02/13 05:08:12;;;;;;;28.38;20.63;;;;;;;;;;5060499;28;20056;-61
2024/02/13 05:10:39;;;;;;;30.83;21.80;;;;;;;;;;5054249;28;20052;-61
2024/02/13 05:13:06;;;;;;;30.42;21.38;;;;;;;;;;5054431;28;20060;-60
2024/02/13 05:15:35;;;;;;;29.40;20.50;;;;;;;;;;5054431;28;20439;-61
2024/02/13 05:18:03;;;;;;;32.13;20.57;;;;;;;;;;5054069;28;20057;-61
2024/02/13 05:20:30;;;;;;;29.30;19.67;;;;;;;;;;5054228;28;20484;-60
2024/02/13 05:22:58;;;;;;;33.20;20.92;;;;;;;;;;5064343;28;20055;-61
2024/02/13 05:25:26;;;;;;;34.10;22.20;;;;;;;;;;5073193;28;20044;-61
2024/02/13 05:27:53;;;;;;;34.35;23.60;;;;;;;;;;5073873;28;20056;-61
2024/02/13 05:30:22;;;;;;;33.63;23.58;;;;;;;;;;5064144;28;20053;-61
2024/02/13 05:32:50;;;;;;;35.87;23.37;;;;;;;;;;5068342;28;20506;-61
2024/02/13 05:35:18;;;;;;;35.25;23.25;;;;;;;;;;5073949;28;20045;-60
2024/02/13 05:37:44;;;;;;;34.45;23.17;;;;;;;;;;5073921;28;20063;-60
2024/02/13 05:40:12;;;;;;;30.33;22.00;;;;;;;;;;5073790;28;20479;-61
2024/02/13 05:42:39;;;;;;;32.13;22.80;;;;;;;;;;5066191;28;20052;-61
2024/02/13 05:45:07;;;;;;;35.00;21.83;;;;;;;;;;5055067;28;20080;-61
2024/02/13 05:47:35;;;;;;;36.70;22.25;;;;;;;;;;5053946;28;20064;-61
2024/02/13 05:50:06;;;;;;;34.85;21.00;;;;;;;;;;5053836;28;20071;-60
2024/02/13 05:52:33;;;;;;;29.08;20.42;;;;;;;;;;5054594;28;20056;-61
2024/02/13 05:55:00;;;;;;;31.42;21.42;;;;;;;;;;5053543;28;20067;-60
2024/02/13 05:57:27;;;;;;;34.45;21.00;;;;;;;;;;5072222;28;20052;-61
2024/02/13 05:59:55;;;;;;;32.55;19.80;;;;;;;;;;5065905;28;20052;-61
2024/02/13 06:02:22;;;;;;;28.33;19.92;;;;;;;;;;5054080;28;20056;-61
2024/02/13 06:04:49;;;;;;;31.98;18.92;;;;;;;;;;5056484;28;20060;-61
2024/02/13 06:07:17;;;;;;;29.98;20.45;;;;;;;;;;5053777;28;20060;-61
2024/02/13 06:09:44;;;;;;;28.92;19.38;;;;;;;;;;5053254;28;20053;-61
2024/02/13 06:12:12;;;;;;;26.98;18.02;;;;;;;;;;5062535;28;20052;-61
2024/02/13 06:14:39;;;;;;;27.48;17.95;;;;;;;;;;5064585;28;20057;-61
2024/02/13 06:17:07;;;;;;;25.25;15.32;;;;;;;;;;5070110;28;20048;-60
2024/02/13 06:19:34;;;;;;;23.80;14.57;;;;;;;;;;5070438;28;20048;-61
2024/02/13 06:22:01;;;;;;;20.92;14.52;;;;;;;;;;5072503;28;20106;-61
2024/02/13 06:24:29;;;;;;;22.23;14.73;;;;;;;;;;5062536;28;20373;-61
2024/02/13 06:26:55;;;;;;;21.60;15.00;;;;;;;;;;5066623;28;20053;-61
2024/02/13 06:29:23;;;;;;;19.05;13.52;;;;;;;;;;5055935;28;20053;-61
2024/02/13 06:31:54;;;;;;;19.90;13.48;;;;;;;;;;5055343;28;20053;-61
2024/02/13 06:34:21;;;;;;;20.05;13.13;;;;;;;;;;5054215;28;20052;-61
2024/02/13 06:36:48;;;;;;;19.88;12.77;;;;;;;;;;5053949;28;20138;-60
2024/02/13 06:39:15;;;;;;;18.63;13.18;;;;;;;;;;5072817;28;20388;-61
2024/02/13 06:41:43;;;;;;;24.00;14.63;;;;;;;;;;5056453;28;20053;-61
2024/02/13 06:44:10;;;;;;;17.63;12.63;;;;;;;;;;5061421;28;20063;-61
2024/02/13 06:46:36;;;;;;;18.98;12.45;;;;;;;;;;5059345;28;20056;-61
2024/02/13 06:49:03;;;;;;;15.05;11.18;;;;;;;;;;5055580;28;20052;-61
2024/02/13 06:51:30;;;;;;;16.50;10.88;;;;;;;;;;5065377;28;20049;-61
2024/02/13 06:54:01;;;;;;;13.70;10.27;;;;;;;;;;5066826;28;20053;-62
2024/02/13 06:56:29;;;;;;;22.45;11.48;;;;;;;;;;5071356;28;20056;-61
2024/02/13 06:58:58;;;;;;;16.20;10.63;;;;;;;;;;5072362;28;20056;-61
2024/02/13 07:01:25;;;;;;;17.55;10.13;;;;;;;;;;5070973;28;20064;-61
2024/02/13 07:03:53;;;;;;;15.63;9.52;;;;;;;;;;5071691;28;20067;-61
2024/02/13 07:06:21;;;;;;;13.07;9.48;;;;;;;;;;5072218;28;20091;-61
2024/02/13 07:08:48;;;;;;;12.40;8.63;;;;;;;;;;5071236;28;20083;-61
2024/02/13 07:11:16;;;;;;;16.15;9.07;;;;;;;;;;5071382;28;20063;-61
2024/02/13 07:13:44;;;;;;;10.88;8.25;;;;;;;;;;5070272;28;20063;-61
2024/02/13 07:16:13;;;;;;;13.32;7.72;;;;;;;;;;5062913;28;20053;-60
2024/02/13 07:18:42;;;;;;;17.83;8.48;;;;;;;;;;5051072;28;20056;-62
2024/02/13 07:21:10;;;;;;;15.43;8.33;;;;;;;;;;5052157;28;20057;-62
2024/02/13 07:23:38;;;;;;;15.63;8.20;;;;;;;;;;5052237;28;20508;-62
2024/02/13 07:26:06;;;;;;;12.23;8.00;;;;;;;;;;5052097;28;20048;-62
2024/02/13 07:28:33;;;;;;;12.10;8.50;;;;;;;;;;5052184;28;20516;-62
2024/02/13 07:31:03;;;;;;;11.95;8.65;;;;;;;;;;5054707;28;20068;-61
2024/02/13 07:33:32;;;;;;;12.82;7.78;;;;;;;;;;5056157;28;20060;-63
2024/02/13 07:36:01;;;;;;;14.43;8.18;;;;;;;;;;5056116;28;20045;-62
2024/02/13 07:38:28;;;;;;;11.35;7.10;;;;;;;;;;5056080;28;20056;-61
2024/02/13 07:40:57;;;;;;;15.15;7.43;;;;;;;;;;5055875;28;20072;-61
2024/02/13 07:43:25;;;;;;;12.38;6.90;;;;;;;;;;5056020;28;20431;-62
2024/02/13 07:45:51;;;;;;;9.73;6.88;;;;;;;;;;5055584;28;20060;-62
2024/02/13 07:48:18;;;;;;;11.18;7.13;;;;;;;;;;5055545;28;20049;-61
2024/02/13 07:50:47;;;;;;;13.30;6.93;;;;;;;;;;5055827;28;20064;-62
2024/02/13 07:53:14;;;;;;;11.67;7.03;;;;;;;;;;5055923;28;20060;-63
2024/02/13 07:55:42;;;;;;;10.32;7.22;;;;;;;;;;5055314;28;20483;-63
2024/02/13 07:58:09;;;;;;;9.15;6.32;;;;;;;;;;5055928;28;20060;-64
2024/02/13 08:00:37;;;;;;;10.40;6.13;;;;;;;;;;5055327;28;20060;-63
2024/02/13 08:03:03;;;;;;;9.95;6.63;;;;;;;;;;5055653;28;20491;-64
2024/02/13 08:05:33;;;;;;;10.95;6.47;;;;;;;;;;5055616;28;20056;-64
2024/02/13 08:08:02;;;;;;;11.05;5.60;;;;;;;;;;5055292;28;20057;-64
2024/02/13 08:10:30;;;;;;;11.93;6.35;;;;;;;;;;5055167;28;20052;-63
2024/02/13 08:12:57;;;;;;;10.10;5.53;;;;;;;;;;5055351;28;20052;-64
2024/02/13 08:15:24;;;;;;;9.38;6.10;;;;;;;;;;5055238;28;20060;-64
2024/02/13 08:17:50;;;;;;;8.00;5.70;;;;;;;;;;5055581;28;20049;-64
2024/02/13 08:20:17;;;;;;;11.88;5.47;;;;;;;;;;5055096;28;20128;-58
2024/02/13 08:22:43;;;;;;;8.95;5.65;;;;;;;;;;5055517;28;20071;-60
2024/02/13 08:25:12;;;;;;;7.32;4.65;;;;;;;;;;5054905;28;20056;-61
2024/02/13 08:27:39;;;;;;;13.00;5.57;;;;;;;;;;5055418;28;20475;-60
2024/02/13 08:30:06;;;;;;;11.05;4.70;;;;;;;;;;5055007;28;20052;-60
2024/02/13 08:32:37;;;;;;;9.05;4.55;;;;;;;;;;5055261;28;20057;-60
2024/02/13 08:35:05;;;;;;;6.18;3.78;;;;;;;;;;5055193;28;20056;-60
2024/02/13 08:37:32;;;;;;;6.35;3.90;;;;;;;;;;5055023;28;20059;-60
2024/02/13 08:39:59;;;;;;;5.78;3.78;;;;;;;;;;5055103;28;20057;-61
2024/02/13 08:42:27;;;;;;;6.97;3.95;;;;;;;;;;5054681;28;20064;-60
2024/02/13 08:44:54;;;;;;;5.53;3.22;;;;;;;;;;5054637;28;20518;-60
2024/02/13 08:47:21;;;;;;;7.88;3.40;;;;;;;;;;5054853;28;20476;-60
2024/02/13 08:49:48;;;;;;;10.25;3.83;;;;;;;;;;5054255;28;20411;-60
2024/02/13 08:52:15;;;;;;;4.00;3.33;;;;;;;;;;5054994;28;20385;-61
2024/02/13 08:54:42;;;;;;;5.72;3.53;;;;;;;;;;5054567;28;20083;-60
2024/02/13 08:57:08;;;;;;;8.95;3.80;;;;;;;;;;5054834;28;20052;-60
2024/02/13 08:59:36;;;;;;;7.13;3.00;;;;;;;;;;5054748;28;20508;-60
2024/02/13 09:02:02;;;;;;;8.48;3.53;;;;;;;;;;5054734;28;20056;-60
2024/02/13 09:04:31;;;;;;;5.83;3.17;;;;;;;;;;5054246;28;20057;-60
2024/02/13 09:06:58;;;;;;;5.45;2.70;;;;;;;;;;5054697;28;20052;-60
2024/02/13 09:09:25;;;;;;;8.85;3.03;;;;;;;;;;5054238;28;20056;-60
2024/02/13 09:11:51;;;;;;;6.38;3.30;;;;;;;;;;5054428;28;20053;-60
2024/02/13 09:14:18;;;;;;;4.53;2.78;;;;;;;;;;5054487;28;20060;-60
2024/02/13 09:16:46;;;;;;;6.97;2.90;;;;;;;;;;5054267;28;20503;-60
2024/02/13 09:19:13;;;;;;;7.07;2.85;;;;;;;;;;5054361;28;20064;-60
2024/02/13 09:21:43;;;;;;;4.55;2.58;;;;;;;;;;5054138;28;20492;-60
2024/02/13 09:24:12;;;;;;;5.68;2.58;;;;;;;;;;5054255;28;20056;-59
2024/02/13 09:26:38;;;;;;;6.72;2.35;;;;;;;;;;5054154;28;20049;-60
2024/02/13 09:29:05;;;;;;;5.82;2.40;;;;;;;;;;5054329;28;20056;-59
2024/02/13 09:31:33;;;;;;;5.63;2.00;;;;;;;;;;5053866;28;20411;-60
2024/02/13 09:34:01;;;;;;;5.75;2.17;;;;;;;;;;5053460;28;20057;-59
2024/02/13 09:36:28;;;;;;;5.37;2.53;;;;;;;;;;5053632;28;20409;-60
2024/02/13 09:38:55;;;;;;;5.85;2.13;;;;;;;;;;5053954;28;20140;-60
2024/02/13 09:41:22;;;;;;;6.18;2.35;;;;;;;;;;5053927;28;20052;-60
2024/02/13 09:43:49;;;;;;;3.85;2.05;;;;;;;;;;5053573;28;20048;-60
2024/02/13 09:46:16;;;;;;;3.35;1.67;;;;;;;;;;5053468;28;20063;-60
2024/02/13 09:48:46;;;;;;;5.95;1.80;;;;;;;;;;5053543;28;20064;-59
2024/02/13 09:51:17;;;;;;;4.63;1.77;;;;;;;;;;5053568;28;20057;-59
2024/02/13 09:53:44;;;;;;;3.95;1.85;;;;;;;;;;5052425;28;20049;-59
2024/02/13 09:56:13;;;;;;;7.13;2.00;;;;;;;;;;5053511;28;20428;-59
2024/02/13 09:58:41;;;;;;;4.63;1.80;;;;;;;;;;5053309;28;20049;-59
2024/02/13 10:01:08;;;;;;;3.25;1.83;;;;;;;;;;5053223;28;20057;-59
2024/02/13 10:03:36;;;;;;;3.05;1.60;;;;;;;;;;5053289;28;20056;-59
2024/02/13 10:06:03;;;;;;;3.38;1.50;;;;;;;;;;5053242;28;20060;-60
2024/02/13 10:08:34;;;;;;;6.38;2.17;;;;;;;;;;5053243;28;20059;-59
2024/02/13 10:11:01;;;;;;;4.97;1.80;;;;;;;;;;5052947;28;20048;-59
2024/02/13 10:13:31;;;;;;;3.67;1.75;;;;;;;;;;5053234;28;20049;-59
2024/02/13 10:15:58;;;;;;;2.97;1.73;;;;;;;;;;5053226;28;20056;-59
2024/02/13 10:18:25;;;;;;;6.57;2.05;;;;;;;;;;5053117;28;20060;-60
2024/02/13 10:20:52;;;;;;;5.13;1.73;;;;;;;;;;5053110;28;20049;-59
2024/02/13 10:23:24;;;;;;;6.60;1.88;;;;;;;;;;5053050;28;20064;-59
2024/02/13 10:25:53;;;;;;;3.53;1.40;;;;;;;;;;5052394;28;20057;-59
2024/02/13 10:28:22;;;;;;;6.47;1.65;;;;;;;;;;5053095;28;20056;-59
2024/02/13 10:30:51;;;;;;;4.00;1.73;;;;;;;;;;5052851;28;20075;-59
2024/02/13 10:33:19;;;;;;;5.80;1.77;;;;;;;;;;5052592;28;20049;-60
2024/02/13 10:35:48;;;;;;;5.95;1.73;;;;;;;;;;5052677;28;20420;-60
2024/02/13 10:38:20;;;;;;;;;;;;;;;;;;5053374;28;20048;-60
2024/02/13 10:40:48;;;;;;;5.32;1.77;;;;;;;;;;5052582;28;19921;-60
2024/02/13 10:43:17;;;;;;;4.72;1.77;;;;;;;;;;5052406;28;20049;-59
2024/02/13 10:45:46;;;;;;;7.82;2.00;;;;;;;;;;5052341;28;20060;-60
2024/02/13 10:48:17;;;;;;;7.03;2.35;;;;;;;;;;5052504;28;20052;-60
2024/02/13 10:50:44;;;;;;;5.53;2.28;;;;;;;;;;5052612;28;20053;-59
2024/02/13 10:53:12;;;;;;;4.43;1.83;;;;;;;;;;5052378;28;20064;-60
2024/02/13 10:55:40;;;;;;;4.72;1.90;;;;;;;;;;5052293;28;20053;-59
2024/02/13 10:58:07;;;;;;;4.50;1.58;;;;;;;;;;5052504;28;20480;-60
2024/02/13 11:00:35;;;;;;;5.80;2.15;;;;;;;;;;5052307;28;20057;-60
2024/02/13 11:03:02;;;;;;;5.90;1.70;;;;;;;;;;5052238;28;20057;-60
2024/02/13 11:05:29;;;;;;;4.45;1.92;;;;;;;;;;5051840;28;20057;-60
2024/02/13 11:07:56;;;;;;;5.70;1.85;;;;;;;;;;5052453;28;20411;-60
2024/02/13 11:10:29;;;;;;;4.28;1.55;;;;;;;;;;5052514;28;20107;-60
2024/02/13 11:12:56;;;;;;;7.95;2.15;;;;;;;;;;5052429;28;20053;-60
2024/02/13 11:15:22;;;;;;;3.55;1.40;;;;;;;;;;5052142;28;20056;-60
2024/02/13 11:17:54;;;;;;;4.57;1.50;;;;;;;;;;5052534;28;20053;-59
2024/02/13 11:20:23;;;;;;;5.07;1.80;;;;;;;;;;5052498;28;20060;-60
2024/02/13 11:22:55;;;;;;;5.10;2.35;;;;;;;;;;5052464;28;20056;-59
2024/02/13 11:25:26;;;;;;;4.97;1.90;;;;;;;;;;5051900;28;20060;-60
2024/02/13 11:27:56;;;;;;;3.00;1.38;;;;;;;;;;5051953;28;20064;-60
2024/02/13 11:30:24;;;;;;;6.35;2.17;;;;;;;;;;5051995;28;20079;-60
2024/02/13 11:32:58;;;;;;;5.82;2.00;;;;;;;;;;5052431;28;20598;-59
2024/02/13 11:35:29;;;;;;;3.92;1.70;;;;;;;;;;5052128;28;20055;-60
2024/02/13 11:37:56;;;;;;;4.32;1.45;;;;;;;;;;5052005;28;20049;-61
2024/02/13 11:40:23;;;;;;;6.22;1.77;;;;;;;;;;5051963;28;20053;-60
2024/02/13 11:42:49;;;;;;;5.55;1.90;;;;;;;;;;5051993;28;20060;-60
2024/02/13 11:45:20;;;;;;;4.38;1.70;;;;;;;;;;5051600;28;20053;-60
2024/02/13 11:47:46;;;;;;;2.97;1.80;;;;;;;;;;5052350;28;20056;-60
2024/02/13 11:50:17;;;;;;;3.85;1.50;;;;;;;;;;5052137;28;20061;-61
2024/02/13 11:52:44;;;;;;;6.53;2.15;;;;;;;;;;5052241;28;20056;-60
2024/02/13 11:55:11;;;;;;;3.20;1.70;;;;;;;;;;5051519;28;20057;-59
2024/02/13 11:57:38;;;;;;;3.45;1.50;;;;;;;;;;5052087;28;20049;-59
2024/02/13 12:00:12;;;;;;;4.57;1.45;;;;;;;;;;5051539;28;20523;-59
2024/02/13 12:02:39;;;;;;;3.88;1.50;;;;;;;;;;5052194;28;20057;-59
2024/02/13 12:05:07;;;;;;;5.20;1.65;;;;;;;;;;5051816;28;20049;-59
2024/02/13 12:07:37;;;;;;;6.00;2.03;;;;;;;;;;5051860;28;20399;-58
2024/02/13 12:10:05;;;;;;;;;;;;;;;;;;5051754;28;20064;-59
2024/02/13 12:12:32;;;;;;;6.32;1.60;;;;;;;;;;5051302;28;19928;-60
2024/02/13 12:14:59;;;;;;;6.00;1.75;;;;;;;;;;5051680;28;20057;-60
2024/02/13 12:17:26;;;;;;;3.65;1.65;;;;;;;;;;5054390;28;20491;-59
2024/02/13 12:19:55;;;;;;;4.93;1.92;;;;;;;;;;5055396;28;20053;-59
2024/02/13 12:22:25;;;;;;;3.65;1.88;;;;;;;;;;5055405;28;20053;-59
2024/02/13 12:24:56;;;;;;;4.38;1.60;;;;;;;;;;5055246;28;20392;-60
2024/02/13 12:27:24;;;;;;;4.25;1.65;;;;;;;;;;5055445;28;20081;-59
2024/02/13 12:29:51;;;;;;;4.97;1.98;;;;;;;;;;5055009;28;20056;-60
2024/02/13 12:32:17;;;;;;;3.88;1.50;;;;;;;;;;5055167;28;20053;-59
2024/02/13 12:34:47;;;;;;;4.10;1.60;;;;;;;;;;5054971;28;20052;-59
2024/02/13 12:37:15;;;;;;;3.60;1.33;;;;;;;;;;5054503;28;20052;-59
2024/02/13 12:39:43;;;;;;;4.75;1.75;;;;;;;;;;5054575;28;20049;-59
2024/02/13 12:42:12;;;;;;;6.30;2.28;;;;;;;;;;5055100;28;20488;-59
2024/02/13 12:44:40;;;;;;;5.53;2.20;;;;;;;;;;5054682;28;20053;-60
2024/02/13 12:47:12;;;;;;;4.23;2.20;;;;;;;;;;5055178;28;20044;-58
2024/02/13 12:49:42;;;;;;;4.97;1.83;;;;;;;;;;5054905;28;20503;-59
2024/02/13 12:52:11;;;;;;;4.22;1.70;;;;;;;;;;5054717;28;20053;-59
2024/02/13 12:54:38;;;;;;;5.07;2.40;;;;;;;;;;5054749;28;20057;-59
2024/02/13 12:57:05;;;;;;;4.45;1.67;;;;;;;;;;5054574;28;20142;-59
2024/02/13 12:59:38;;;;;;;4.90;2.20;;;;;;;;;;5054604;28;20053;-59
2024/02/13 13:02:08;;;;;;;6.47;1.80;;;;;;;;;;5054522;28;20052;-59
2024/02/13 13:04:35;;;;;;;4.65;1.65;;;;;;;;;;5054094;28;20064;-59
2024/02/13 13:07:03;;;;;;;5.00;1.65;;;;;;;;;;5054617;28;20057;-59
2024/02/13 13:09:31;;;;;;;4.43;1.20;;;;;;;;;;5054189;28;20060;-58
2024/02/13 13:11:58;;;;;;;4.13;1.48;;;;;;;;;;5054585;28;20049;-59
2024/02/13 13:14:27;;;;;;;4.80;1.48;;;;;;;;;;5054169;28;20057;-59
2024/02/13 13:16:55;;;;;;;4.25;1.50;;;;;;;;;;5054235;28;20399;-59
2024/02/13 13:19:22;;;;;;;4.93;1.50;;;;;;;;;;5054180;28;20053;-58
2024/02/13 13:21:51;;;;;;;3.15;1.27;;;;;;;;;;5054201;28;20056;-58
2024/02/13 13:24:17;;;;;;;3.65;1.42;;;;;;;;;;5054204;28;20052;-59
2024/02/13 13:26:45;;;;;;;3.75;1.48;;;;;;;;;;5054112;28;20053;-58
2024/02/13 13:29:12;;;;;;;4.55;1.80;;;;;;;;;;5054227;28;20492;-60
2024/02/13 13:31:40;;;;;;;3.72;1.92;;;;;;;;;;5053912;28;20056;-60
2024/02/13 13:34:09;;;;;;;3.80;1.20;;;;;;;;;;5053738;28;20052;-59
2024/02/13 13:36:36;;;;;;;3.80;1.35;;;;;;;;;;5053964;28;20059;-58
2024/02/13 13:39:08;;;;;;;3.67;1.38;;;;;;;;;;5053665;28;20053;-58
2024/02/13 13:41:35;;;;;;;3.17;1.40;;;;;;;;;;5053738;28;20463;-58
2024/02/13 13:44:02;;;;;;;2.20;1.20;;;;;;;;;;5053439;28;20048;-58
2024/02/13 13:46:31;;;;;;;2.65;0.85;;;;;;;;;;5053216;28;20056;-59
2024/02/13 13:48:59;;;;;;;3.55;1.58;;;;;;;;;;5053449;28;20068;-58
2024/02/13 13:51:28;;;;;;;3.55;1.38;;;;;;;;;;5053554;28;20057;-58
2024/02/13 13:53:55;;;;;;;4.82;1.40;;;;;;;;;;5053698;28;20491;-60
2024/02/13 13:56:22;;;;;;;3.55;1.40;;;;;;;;;;5053349;28;20048;-60
2024/02/13 13:58:48;;;;;;;2.38;1.30;;;;;;;;;;5053503;28;20052;-59
2024/02/13 14:01:15;;;;;;;3.00;1.30;;;;;;;;;;5053544;28;20472;-60
2024/02/13 14:03:43;;;;;;;3.10;1.35;;;;;;;;;;5053572;28;20064;-60
2024/02/13 14:06:10;;;;;;;4.95;1.20;;;;;;;;;;5053603;28;20053;-60
2024/02/13 14:08:38;;;;;;;3.33;1.02;;;;;;;;;;5053523;28;20052;-60
2024/02/13 14:11:06;;;;;;;1.87;1.00;;;;;;;;;;5053304;28;20059;-60
2024/02/13 14:13:33;;;;;;;2.40;1.00;;;;;;;;;;5053386;28;20060;-60
2024/02/13 14:16:00;;;;;;;4.25;1.25;;;;;;;;;;5053105;28;20061;-60
2024/02/13 14:18:27;;;;;;;3.13;1.17;;;;;;;;;;5053154;28;20053;-60
2024/02/13 14:20:54;;;;;;;3.70;1.15;;;;;;;;;;5052993;28;20064;-59
2024/02/13 14:23:21;;;;;;;2.60;1.00;;;;;;;;;;5053118;28;20496;-60
2024/02/13 14:25:50;;;;;;;3.15;1.20;;;;;;;;;;5052708;28;20053;-60
2024/02/13 14:28:17;;;;;;;1.80;1.00;;;;;;;;;;5053084;28;20487;-60
2024/02/13 14:30:44;;;;;;;3.50;1.25;;;;;;;;;;5052696;28;20083;-59
2024/02/13 14:33:11;;;;;;;2.85;1.35;;;;;;;;;;5052530;28;20048;-59
2024/02/13 14:35:39;;;;;;;3.45;1.30;;;;;;;;;;5052422;28;20049;-59
2024/02/13 14:38:07;;;;;;;2.13;0.90;;;;;;;;;;5052412;28;20087;-59